Řízení letového provozu České republiky
OPMET data - Ceska Republika Aktualizace: 27.09.2016 18:37:07  UTC
SIGMET / AIRMET - NIL
Warning / Vystraha - NIL
 
METAR / SPECI
METAR LKCV 271800Z 23004KT CAVOK 14/08 Q1027 NOSIG=
METAR LKKB 271800Z 22001KT CAVOK 14/08 Q1027 NOSIG =
METAR LKKU 271500Z 23002KT CAVOK 20/10 Q1025=
METAR LKKV 271830Z 09003KT 050V110 CAVOK 11/09 Q1028 RMK REG QNH 1024=
METAR LKLN 271800Z AUTO 00000KT CAVOK 15/08 Q1028=
METAR LKMT 271830Z 00000KT CAVOK 12/09 Q1027 NOSIG RMK REG QNH 1024=
METAR LKNA 271800Z 21004KT CAVOK 15/07 Q1028 NOSIG=
METAR LKPD 271800Z 24001KT CAVOK 15/07 Q1027 NOSIG =
METAR LKPR 271830Z VRB02KT CAVOK 15/08 Q1027 NOSIG RMK REG QNH 1024=
METAR LKTB 271830Z 00000KT CAVOK 17/07 Q1027 NOSIG RMK REG QNH 1024=
METAR LKVO NIL
TAF
TAF LKCV 271700Z 2718/2818 32005KT CAVOK      BECMG 2719/2722 13006KT      TEMPO 2807/2818 26014G24KT 9999 SCT040=
TAF LKKB 271700Z 2718/2818 VRB02KT CAVOK      BECMG 2804/2807 3000 BR NSC      BECMG 2807/2810 23014KT CAVOK      TEMPO 2809/2816 9999 FEW035=
TAF LKKU NIL
TAF LKKV 271700Z 2718/2824 VRB02KT CAVOK      TEMPO 2802/2806 4000 BR SCT005      PROB30 TEMPO 2802/2806 2000 MIFG BKN002      BECMG 2808/2810 24010KT      TEMPO 2810/2819 26012G24KT=
TAF LKLN NIL
TAF LKMT 271700Z 2718/2824 03006KT CAVOK      BECMG 2719/2722 VRB02KT 4000 BR NSC      TEMPO 2800/2806 1800 BR SCT002      PROB30 TEMPO 2802/2806 1200 BR OVC002      BECMG 2806/2809 22010KT      TEMPO 2809/2817 23014G26KT=
TAF LKNA 271700Z 2718/2818 21004KT CAVOK      BECMG 2800/2802 36004KT=
TAF LKPD 271700Z 2718/2818 VRB02KT CAVOK      PROB40 TEMPO 2804/2806 5000 MIFG BR      BECMG 2808/2810 26010KT      TEMPO 2811/2818 26012G22KT=
TAF LKPR 271700Z 2718/2824 VRB02KT CAVOK      BECMG 2805/2808 23012KT      TEMPO 2808/2824 24014G26KT=
TAF LKTB 271700Z 2718/2824 VRB02KT CAVOK      BECMG 2810/2812 20010KT      TEMPO 2812/2816 23016KT=
TAF LKVO NIL